Time;durP1;ratioP1;P1;durP2;ratioP2;P2;SDS_P1;SDS_P2;PMS_P1;PMS_P2;Temp;Humidity;BMP_temperature;BMP_pressure;BME280_temperature;BME280_humidity;BME280_pressure;Samples;Min_cycle;Max_cycle;Signal;HPM_P1;HPM_P2
2022/04/23 00:02:25;;;;;;;0.30;0.20;;;;;;;10.91;85.03;98946.56;5082475;28;20568;-51
2022/04/23 00:04:52;;;;;;;0.50;0.40;;;;;;;11.01;83.62;98948.75;5088224;28;20450;-51
2022/04/23 00:07:18;;;;;;;0.83;0.83;;;;;;;11.07;84.40;98945.78;5086666;28;20469;-50
2022/04/23 00:09:45;;;;;;;0.30;0.20;;;;;;;11.07;83.98;98938.66;5080864;28;20476;-51
2022/04/23 00:12:13;;;;;;;0.30;0.20;;;;;;;11.02;84.63;98945.16;5081821;28;20481;-52
2022/04/23 00:14:39;;;;;;;0.40;0.40;;;;;;;10.98;84.12;98945.31;5087147;28;20441;-51
2022/04/23 00:17:06;;;;;;;0.30;0.20;;;;;;;11.01;84.05;98944.31;5081515;28;20989;-51
2022/04/23 00:19:33;;;;;;;0.40;0.30;;;;;;;10.95;84.29;98940.16;5093535;28;20437;-51
2022/04/23 00:22:00;;;;;;;1.50;1.50;;;;;;;11.08;83.51;98947.47;5090384;28;20454;-51
2022/04/23 00:24:27;;;;;;;0.40;0.30;;;;;;;11.08;83.90;98951.00;5083108;28;20540;-51
2022/04/23 00:26:53;;;;;;;0.30;0.20;;;;;;;11.10;83.70;98942.94;5077376;28;20883;-51
2022/04/23 00:29:20;;;;;;;0.30;0.20;;;;;;;11.08;83.60;98940.38;5092336;28;20484;-51
2022/04/23 00:31:46;;;;;;;0.30;0.20;;;;;;;11.00;84.08;98936.41;5081654;28;20449;-51
2022/04/23 00:34:14;;;;;;;0.30;0.20;;;;;;;10.97;83.90;98943.59;5083073;28;20508;-51
2022/04/23 00:36:41;;;;;;;0.30;0.20;;;;;;;10.92;84.44;98932.34;5080724;28;20465;-51
2022/04/23 00:39:07;;;;;;;1.03;1.03;;;;;;;11.01;84.64;98931.00;5088009;28;20583;-53
2022/04/23 00:41:46;;;;;;;0.30;0.20;;;;;;;10.95;84.03;98932.16;5087157;28;20481;-54
2022/04/23 00:44:16;;;;;;;0.67;0.67;;;;;;;10.90;84.51;98936.00;5073349;28;20993;-53
2022/04/23 00:46:43;;;;;;;0.30;0.20;;;;;;;10.77;85.44;98929.63;5087399;28;20453;-54
2022/04/23 00:49:11;;;;;;;0.30;0.20;;;;;;;10.77;85.35;98929.63;5083168;28;21022;-53
2022/04/23 00:51:41;;;;;;;0.30;0.20;;;;;;;10.76;85.32;98934.06;5062426;28;20819;-53
2022/04/23 00:54:08;;;;;;;0.40;0.30;;;;;;;10.83;84.87;98929.31;5063487;28;20511;-53
2022/04/23 00:56:39;;;;;;;4.73;4.00;;;;;;;10.92;84.50;98929.69;5085846;28;20445;-53
2022/04/23 00:59:11;;;;;;;0.30;0.20;;;;;;;10.83;84.97;98931.97;5083400;28;20856;-54
2022/04/23 01:01:43;;;;;;;0.43;0.40;;;;;;;10.90;84.49;98928.03;5086520;28;20466;-53
2022/04/23 01:04:12;;;;;;;0.30;0.20;;;;;;;10.69;85.42;98932.69;5085579;28;21024;-53
2022/04/23 01:06:43;;;;;;;0.30;0.20;;;;;;;10.78;84.96;98934.84;5077746;28;20503;-53
2022/04/23 01:09:09;;;;;;;1.03;0.93;;;;;;;10.78;84.91;98932.19;5068467;28;20440;-53
2022/04/23 01:11:36;;;;;;;0.77;0.77;;;;;;;10.77;84.80;98941.09;5078712;28;20456;-54
2022/04/23 01:14:03;;;;;;;0.30;0.20;;;;;;;10.74;85.48;98949.25;5086674;28;20497;-54
2022/04/23 01:16:30;;;;;;;1.80;1.70;;;;;;;10.75;85.40;98940.31;5066532;28;20457;-54
2022/04/23 01:18:57;;;;;;;0.77;0.67;;;;;;;10.76;85.29;98942.03;5080356;28;20493;-54
2022/04/23 01:21:24;;;;;;;0.37;0.23;;;;;;;10.67;85.41;98951.34;5093230;28;20510;-54
2022/04/23 01:23:53;;;;;;;0.40;0.30;;;;;;;10.76;85.21;98950.00;5081176;28;20926;-54
2022/04/23 01:26:25;;;;;;;0.40;0.40;;;;;;;10.83;85.03;98946.13;5066380;28;20454;-53
2022/04/23 01:28:52;;;;;;;0.63;0.60;;;;;;;10.81;84.93;98945.31;5086362;28;20515;-53
2022/04/23 01:31:19;;;;;;;1.53;0.93;;;;;;;10.79;84.84;98941.03;5081938;28;20481;-54
2022/04/23 01:33:46;;;;;;;0.30;0.20;;;;;;;10.81;85.08;98942.66;5087270;28;20953;-53
2022/04/23 01:36:14;;;;;;;2.60;1.30;;;;;;;10.63;85.75;98944.47;5081805;28;20509;-54
2022/04/23 01:38:42;;;;;;;0.53;0.53;;;;;;;10.73;85.68;98942.19;5078920;28;21012;-53
2022/04/23 01:41:09;;;;;;;0.30;0.20;;;;;;;10.56;86.43;98944.88;5082902;28;20507;-54
2022/04/23 01:43:36;;;;;;;0.60;0.50;;;;;;;10.53;86.43;98945.84;5075739;28;20517;-54
2022/04/23 01:46:02;;;;;;;0.60;0.60;;;;;;;10.52;86.39;98937.97;5082649;28;20476;-54
2022/04/23 01:48:29;;;;;;;0.30;0.20;;;;;;;10.57;86.56;98939.47;5084052;28;20465;-54
2022/04/23 01:50:56;;;;;;;0.60;0.60;;;;;;;10.53;86.66;98942.34;5082808;28;20442;-54
2022/04/23 01:53:25;;;;;;;0.30;0.20;;;;;;;10.56;86.92;98939.56;5072921;28;20507;-54
2022/04/23 01:55:52;;;;;;;0.40;0.30;;;;;;;10.46;87.34;98939.13;5083260;28;20445;-53
2022/04/23 01:58:21;;;;;;;0.30;0.20;;;;;;;10.52;86.56;98937.97;5079201;28;20826;-54
2022/04/23 02:00:49;;;;;;;0.30;0.20;;;;;;;10.55;86.93;98945.78;5080584;28;20454;-54
2022/04/23 02:03:16;;;;;;;0.40;0.40;;;;;;;10.48;87.59;98945.22;5081113;28;20480;-53
2022/04/23 02:05:42;;;;;;;0.30;0.20;;;;;;;10.59;87.04;98947.34;5080241;28;20453;-53
2022/04/23 02:08:14;;;;;;;0.30;0.20;;;;;;;10.48;87.65;98939.06;5085869;28;20466;-53
2022/04/23 02:10:40;;;;;;;0.80;0.60;;;;;;;10.44;87.77;98948.13;5085434;28;20449;-53
2022/04/23 02:13:07;;;;;;;0.30;0.20;;;;;;;10.49;87.88;98946.94;5075055;28;21015;-54
2022/04/23 02:15:34;;;;;;;0.30;0.20;;;;;;;10.54;87.69;98939.59;5085402;28;20506;-53
2022/04/23 02:18:00;;;;;;;2.30;0.50;;;;;;;10.53;88.12;98937.88;5065564;28;20529;-54
2022/04/23 02:20:28;;;;;;;0.40;0.40;;;;;;;10.80;87.17;98930.31;5086490;28;20450;-53
2022/04/23 02:22:55;;;;;;;0.30;0.20;;;;;;;10.76;87.25;98933.22;5063671;28;20535;-54
2022/04/23 02:25:21;;;;;;;0.87;0.73;;;;;;;10.70;87.84;98933.53;5085509;28;21011;-54
2022/04/23 02:27:49;;;;;;;0.30;0.20;;;;;;;10.67;88.04;98934.53;5074850;28;20480;-54
2022/04/23 02:30:18;;;;;;;1.13;0.40;;;;;;;10.47;88.57;98929.38;5078225;28;20813;-54
2022/04/23 02:32:46;;;;;;;0.30;0.20;;;;;;;10.57;88.40;98928.84;5084456;28;20449;-54
2022/04/23 02:35:15;;;;;;;0.57;0.57;;;;;;;10.60;87.85;98930.47;5081817;28;20499;-54
2022/04/23 02:37:45;;;;;;;0.30;0.20;;;;;;;10.72;88.04;98927.19;5065566;28;20484;-54
2022/04/23 02:40:14;;;;;;;1.60;1.50;;;;;;;10.56;88.68;98934.22;5086034;28;20442;-54
2022/04/23 02:42:41;;;;;;;0.73;0.73;;;;;;;10.53;88.80;98937.03;5082810;28;20446;-54
2022/04/23 02:45:09;;;;;;;0.40;0.40;;;;;;;10.46;89.59;98932.97;5084881;28;20488;-54
2022/04/23 02:47:53;;;;;;;7.93;2.37;;;;;;;10.51;89.42;98926.47;5074352;28;20496;-54
2022/04/23 02:50:26;;;;;;;0.30;0.20;;;;;;;10.62;88.99;98923.28;5078257;28;20488;-54
2022/04/23 02:52:57;;;;;;;0.30;0.20;;;;;;;10.51;89.59;98925.63;5079279;28;20476;-53
2022/04/23 02:55:25;;;;;;;0.30;0.20;;;;;;;10.51;89.73;98929.13;5085111;28;20514;-53
2022/04/23 02:57:53;;;;;;;2.43;1.40;;;;;;;10.47;89.74;98930.22;5084986;28;20465;-53
2022/04/23 03:00:19;;;;;;;0.97;0.97;;;;;;;10.54;89.69;98926.31;5079106;28;20486;-53
2022/04/23 03:02:47;;;;;;;0.67;0.40;;;;;;;10.46;89.82;98935.63;5078015;28;21012;-53
2022/04/23 03:05:15;;;;;;;0.77;0.70;;;;;;;10.44;90.27;98937.50;5083886;28;21055;-53
2022/04/23 03:07:43;;;;;;;0.57;0.57;;;;;;;10.50;90.48;98927.41;5084928;28;20469;-53
2022/04/23 03:10:12;;;;;;;1.03;0.80;;;;;;;10.42;90.70;98929.63;5079758;28;20957;-54
2022/04/23 03:12:39;;;;;;;0.53;0.53;;;;;;;10.50;90.69;98931.88;5078325;28;21011;-54
2022/04/23 03:15:08;;;;;;;0.30;0.20;;;;;;;10.38;91.07;98925.38;5083039;28;20480;-53
2022/04/23 03:17:39;;;;;;;1.03;1.03;;;;;;;10.45;90.77;98928.59;5084660;28;20839;-53
2022/04/23 03:20:10;;;;;;;0.30;0.20;;;;;;;10.32;91.67;98928.34;5082211;28;20739;-53
2022/04/23 03:22:38;;;;;;;1.60;1.13;;;;;;;10.24;91.80;98923.41;5087487;28;20507;-54
2022/04/23 03:25:06;;;;;;;0.50;0.50;;;;;;;10.47;90.62;98929.38;5082892;28;20554;-54
2022/04/23 03:27:32;;;;;;;13.00;3.07;;;;;;;10.35;91.41;98933.50;5077624;28;20537;-54
2022/04/23 03:30:00;;;;;;;0.30;0.20;;;;;;;10.23;92.10;98923.47;5079412;28;20456;-54
2022/04/23 03:32:27;;;;;;;0.30;0.20;;;;;;;10.17;92.47;98931.72;5084751;28;20504;-54
2022/04/23 03:34:53;;;;;;;0.30;0.20;;;;;;;9.99;93.47;98929.00;5081809;28;20444;-53
2022/04/23 03:37:21;;;;;;;0.30;0.20;;;;;;;9.88;94.11;98935.78;5084549;28;20534;-54
2022/04/23 03:39:48;;;;;;;0.40;0.33;;;;;;;9.79;94.92;98929.97;5083583;28;20484;-54
2022/04/23 03:42:15;;;;;;;2.43;1.20;;;;;;;9.77;95.11;98931.84;5077999;28;20449;-54
2022/04/23 03:44:42;;;;;;;0.40;0.30;;;;;;;9.83;94.96;98924.50;5078154;28;20904;-54
2022/04/23 03:47:08;;;;;;;0.30;0.20;;;;;;;9.85;95.25;98930.59;5084190;28;20499;-54
2022/04/23 03:49:35;;;;;;;2.50;0.77;;;;;;;9.91;94.75;98935.63;5078973;28;20446;-54
2022/04/23 03:52:02;;;;;;;0.30;0.20;;;;;;;9.92;94.96;98938.19;5088124;28;20943;-54
2022/04/23 03:54:29;;;;;;;0.30;0.20;;;;;;;9.95;94.54;98938.06;5076196;28;20481;-54
2022/04/23 03:56:55;;;;;;;0.30;0.20;;;;;;;9.96;94.90;98933.59;5087525;28;20469;-54
2022/04/23 03:59:25;;;;;;;1.03;0.93;;;;;;;9.93;94.79;98944.38;5088213;28;20477;-54
2022/04/23 04:01:55;;;;;;;0.30;0.20;;;;;;;10.05;94.18;98946.44;5081969;28;20481;-54
2022/04/23 04:04:22;;;;;;;0.30;0.20;;;;;;;9.85;95.44;98957.13;5081289;28;20535;-54
2022/04/23 04:06:49;;;;;;;0.30;0.20;;;;;;;9.69;96.65;98954.34;5085718;28;20462;-54
2022/04/23 04:09:16;;;;;;;1.90;1.17;;;;;;;9.70;96.60;98956.91;5088195;28;20445;-54
2022/04/23 04:14:30;;;;;;;0.30;0.20;;;;;;;9.60;96.86;98954.78;5080300;28;20499;-54
2022/04/23 04:17:00;;;;;;;0.30;0.20;;;;;;;9.69;96.96;98962.28;5082911;28;20594;-53
2022/04/23 04:19:28;;;;;;;3.23;2.50;;;;;;;9.64;97.45;98957.22;5092568;28;20991;-54
2022/04/23 04:21:55;;;;;;;0.30;0.20;;;;;;;9.74;97.20;98949.69;5087131;28;20453;-54
2022/04/23 04:24:23;;;;;;;0.30;0.20;;;;;;;9.68;97.25;98960.59;5080434;28;20481;-54
2022/04/23 04:26:50;;;;;;;0.30;0.20;;;;;;;9.81;97.10;98956.41;5079509;28;20524;-53
2022/04/23 04:29:17;;;;;;;0.37;0.30;;;;;;;9.65;97.96;98953.63;5080396;28;20511;-54
2022/04/23 04:31:47;;;;;;;0.60;0.57;;;;;;;9.91;96.96;98959.50;5064601;28;20508;-54
2022/04/23 04:34:28;;;;;;;0.30;0.20;;;;;;;9.79;97.31;98953.00;5087470;28;20942;-54
2022/04/23 04:37:12;;;;;;;0.30;0.20;;;;;;;9.74;97.84;98957.66;5084222;28;20824;-54
2022/04/23 04:39:41;;;;;;;0.30;0.20;;;;;;;9.82;98.11;98949.31;5083346;28;20818;-53
2022/04/23 04:42:08;;;;;;;0.30;0.20;;;;;;;9.83;97.84;98951.03;5084495;28;20449;-54
2022/04/23 04:44:36;;;;;;;0.30;0.20;;;;;;;9.85;97.60;98949.16;5083072;28;20490;-53
2022/04/23 04:47:04;;;;;;;0.70;0.70;;;;;;;9.78;98.37;98948.63;5087035;28;21061;-53
2022/04/23 04:49:31;;;;;;;0.30;0.20;;;;;;;9.76;97.76;98950.47;5085346;28;20445;-54
2022/04/23 04:51:57;;;;;;;0.30;0.20;;;;;;;9.79;98.26;98945.88;5080165;28;20867;-54
2022/04/23 04:54:24;;;;;;;0.30;0.20;;;;;;;9.88;98.18;98946.41;5093633;28;20476;-53
2022/04/23 04:56:52;;;;;;;0.40;0.37;;;;;;;9.97;97.81;98951.25;5079626;28;20477;-54
2022/04/23 04:59:22;;;;;;;0.30;0.20;;;;;;;9.95;98.38;98946.00;5081931;28;20449;-53
2022/04/23 05:01:50;;;;;;;0.70;0.70;;;;;;;9.90;98.23;98944.53;5086789;28;20902;-54
2022/04/23 05:04:18;;;;;;;0.40;0.33;;;;;;;10.04;97.66;98953.56;5078202;28;20488;-54
2022/04/23 05:06:44;;;;;;;2.00;0.40;;;;;;;10.16;97.38;98952.09;5086614;28;20467;-53
2022/04/23 05:09:11;;;;;;;0.30;0.20;;;;;;;10.24;96.77;98954.41;5086601;28;20957;-54
2022/04/23 05:11:37;;;;;;;3.70;0.87;;;;;;;10.31;96.41;98954.03;5079071;28;20481;-53
2022/04/23 05:14:04;;;;;;;0.40;0.37;;;;;;;10.57;95.00;98958.06;5077754;28;20863;-53
2022/04/23 05:16:31;;;;;;;0.47;0.47;;;;;;;10.91;94.00;98961.66;5073672;28;20485;-53
2022/04/23 05:18:57;;;;;;;0.30;0.20;;;;;;;10.93;93.42;98962.44;5086197;28;20958;-53
2022/04/23 05:21:24;;;;;;;0.70;0.53;;;;;;;11.10;93.05;98967.78;5093603;28;20506;-54
2022/04/23 05:23:51;;;;;;;0.83;0.83;;;;;;;11.17;92.29;98963.84;5060692;28;20458;-54
2022/04/23 05:26:18;;;;;;;0.30;0.20;;;;;;;11.28;92.31;98968.59;5074621;28;20458;-53
2022/04/23 05:28:45;;;;;;;0.80;0.60;;;;;;;11.43;90.96;98970.44;5086373;28;20473;-53
2022/04/23 05:31:11;;;;;;;0.30;0.20;;;;;;;11.53;91.02;98974.34;5080439;28;20453;-53
2022/04/23 05:33:38;;;;;;;0.43;0.40;;;;;;;11.53;90.91;98962.84;5074303;28;20496;-53
2022/04/23 05:36:06;;;;;;;0.40;0.30;;;;;;;11.57;90.54;98967.03;5085835;28;20445;-53
2022/04/23 05:38:34;;;;;;;0.30;0.20;;;;;;;11.51;90.50;98957.59;5076057;28;20509;-53
2022/04/23 05:41:02;;;;;;;0.30;0.20;;;;;;;11.85;89.15;98963.75;5085047;28;20498;-53
2022/04/23 05:43:28;;;;;;;1.33;1.30;;;;;;;11.76;89.30;98973.06;5085912;28;20452;-53
2022/04/23 05:45:57;;;;;;;3.60;2.33;;;;;;;11.95;88.58;98975.63;5080608;28;20566;-53
2022/04/23 05:48:24;;;;;;;0.40;0.40;;;;;;;12.09;88.34;98972.19;5079219;28;20465;-52
2022/04/23 05:50:51;;;;;;;0.60;0.53;;;;;;;12.15;88.41;98972.69;5078690;28;20485;-53
2022/04/23 05:53:18;;;;;;;0.30;0.20;;;;;;;12.13;88.15;98979.94;5087262;28;20480;-53
2022/04/23 05:55:44;;;;;;;2.70;2.50;;;;;;;12.16;88.26;98970.91;5083788;28;20472;-53
2022/04/23 05:58:11;;;;;;;0.30;0.20;;;;;;;12.11;88.75;98978.31;5085654;28;20473;-54
2022/04/23 06:00:37;;;;;;;0.30;0.20;;;;;;;12.27;87.68;98987.16;5080895;28;20489;-54
2022/04/23 06:03:04;;;;;;;0.97;0.97;;;;;;;12.24;87.63;98986.47;5082489;28;20553;-54
2022/04/23 06:05:31;;;;;;;1.33;1.23;;;;;;;12.39;87.81;98991.78;5082162;28;20488;-54
2022/04/23 06:07:58;;;;;;;0.30;0.20;;;;;;;12.56;87.61;98998.81;5077325;28;20520;-54
2022/04/23 06:10:24;;;;;;;0.30;0.20;;;;;;;12.17;87.68;98983.28;5082422;28;20450;-54
2022/04/23 06:12:51;;;;;;;0.30;0.20;;;;;;;12.13;89.06;98992.38;5085297;28;21024;-55
2022/04/23 06:15:18;;;;;;;0.50;0.50;;;;;;;12.11;88.76;98986.28;5081523;28;20445;-55
2022/04/23 06:17:45;;;;;;;0.40;0.30;;;;;;;12.02;89.71;98997.44;5078933;28;20477;-54
2022/04/23 06:20:12;;;;;;;0.30;0.20;;;;;;;11.96;90.03;98990.66;5092508;28;20440;-54
2022/04/23 06:22:39;;;;;;;0.30;0.20;;;;;;;12.06;89.17;98993.66;5086042;28;20543;-54
2022/04/23 06:25:06;;;;;;;0.53;0.53;;;;;;;12.30;88.44;98992.28;5082884;28;20936;-54
2022/04/23 06:27:32;;;;;;;0.30;0.20;;;;;;;12.27;87.82;98996.94;5078148;28;20477;-54
2022/04/23 06:29:59;;;;;;;0.30;0.20;;;;;;;12.31;88.88;98995.81;5081011;28;20456;-54
2022/04/23 06:32:26;;;;;;;0.30;0.20;;;;;;;12.40;88.23;98996.16;5084983;28;20531;-55
2022/04/23 06:34:52;;;;;;;0.40;0.37;;;;;;;12.49;87.85;98997.47;5083166;28;20442;-54
2022/04/23 06:37:19;;;;;;;0.30;0.20;;;;;;;12.79;87.46;99000.16;5075868;28;20518;-54
2022/04/23 06:39:46;;;;;;;0.30;0.20;;;;;;;12.70;86.63;98996.19;5083465;28;20444;-54
2022/04/23 06:42:13;;;;;;;0.30;0.20;;;;;;;12.80;86.79;98993.00;5077821;28;20484;-54
2022/04/23 06:44:39;;;;;;;2.40;2.20;;;;;;;12.73;86.89;99004.00;5079725;28;21059;-54
2022/04/23 06:47:07;;;;;;;0.30;0.20;;;;;;;12.42;86.85;99012.06;5084872;28;20499;-54
2022/04/23 06:49:33;;;;;;;4.57;1.90;;;;;;;12.19;87.50;99013.34;5080271;28;20994;-54
2022/04/23 06:52:00;;;;;;;0.30;0.20;;;;;;;12.25;87.69;99021.00;5085951;28;20453;-51
2022/04/23 06:54:26;;;;;;;0.40;0.30;;;;;;;12.51;87.81;99011.56;5079395;28;20467;-52
2022/04/23 06:56:53;;;;;;;0.30;0.20;;;;;;;12.53;87.60;99014.13;5099191;22;20446;-55
2022/04/23 06:59:20;;;;;;;0.40;0.30;;;;;;;12.55;86.84;99015.75;5079529;28;20458;-55
2022/04/23 07:01:46;;;;;;;0.30;0.20;;;;;;;12.29;87.15;99006.56;5078607;28;21014;-56
2022/04/23 07:04:13;;;;;;;0.40;0.33;;;;;;;12.69;87.03;99009.63;5072174;28;20473;-56
2022/04/23 07:06:40;;;;;;;0.50;0.50;;;;;;;12.93;86.45;99015.34;5082756;28;20446;-56
2022/04/23 07:09:07;;;;;;;0.30;0.20;;;;;;;12.80;86.18;99011.69;5071711;28;20499;-56
2022/04/23 07:11:34;;;;;;;0.40;0.30;;;;;;;12.99;86.02;99004.31;5066648;28;20882;-56
2022/04/23 07:14:01;;;;;;;0.30;0.20;;;;;;;12.97;85.85;99011.53;5046655;28;20444;-56
2022/04/23 07:16:27;;;;;;;0.37;0.27;;;;;;;13.18;85.58;99012.09;5058272;28;20826;-56
2022/04/23 07:18:54;;;;;;;0.30;0.20;;;;;;;12.96;84.72;99013.34;5051495;28;21046;-56
2022/04/23 07:21:21;;;;;;;0.30;0.20;;;;;;;13.09;85.08;99009.97;5058637;28;21003;-56
2022/04/23 07:24:03;;;;;;;0.40;0.33;;;;;;;13.22;84.96;99018.97;5059773;28;20446;-56
2022/04/23 07:26:31;;;;;;;0.30;0.20;;;;;;;13.15;84.20;99020.25;5069221;28;20490;-57
2022/04/23 07:28:58;;;;;;;0.30;0.20;;;;;;;13.25;85.02;99025.00;5071732;28;20449;-56
2022/04/23 07:31:25;;;;;;;0.90;0.87;;;;;;;12.92;84.78;99016.28;5052700;28;20450;-57
2022/04/23 07:39:22;;;;;;;0.60;0.57;;;;;;;13.20;84.44;99016.41;5056168;28;20450;-56
2022/04/23 07:41:48;;;;;;;0.30;0.20;;;;;;;13.42;83.32;99009.75;5055121;28;20592;-56
2022/04/23 07:44:15;;;;;;;0.30;0.20;;;;;;;13.42;83.44;99012.44;5052099;28;20485;-56
2022/04/23 07:46:41;;;;;;;0.30;0.20;;;;;;;13.44;83.33;99018.56;5074982;28;20788;-56
2022/04/23 07:49:09;;;;;;;0.30;0.20;;;;;;;13.41;83.29;99014.25;5074471;28;20817;-56
2022/04/23 07:51:36;;;;;;;0.63;0.63;;;;;;;13.62;82.60;99023.63;5074726;28;20525;-56
2022/04/23 07:54:02;;;;;;;0.60;0.40;;;;;;;13.82;82.51;99008.16;5065728;28;20518;-56
2022/04/23 07:56:29;;;;;;;0.30;0.20;;;;;;;13.85;82.04;99003.53;5070428;28;20442;-57
2022/04/23 07:58:56;;;;;;;0.30;0.20;;;;;;;14.03;81.80;99008.66;5074229;28;20454;-57
2022/04/23 08:01:22;;;;;;;0.50;0.50;;;;;;;14.18;81.66;99011.19;5074196;28;20499;-57
2022/04/23 08:03:49;;;;;;;0.50;0.50;;;;;;;14.09;81.57;99001.09;5074747;28;20458;-59
2022/04/23 08:06:16;;;;;;;1.13;1.13;;;;;;;14.09;81.32;99001.09;5074164;28;20501;-59
2022/04/23 08:08:43;;;;;;;0.30;0.20;;;;;;;14.37;80.71;99002.00;5074165;28;20469;-59
2022/04/23 08:11:10;;;;;;;0.30;0.20;;;;;;;14.38;80.31;99003.69;5074301;28;20458;-59
2022/04/23 08:13:37;;;;;;;0.30;0.20;;;;;;;14.37;80.02;98997.50;5074199;28;20783;-59
2022/04/23 08:16:04;;;;;;;0.30;0.20;;;;;;;14.26;80.28;99000.03;5074074;28;20449;-59
2022/04/23 08:18:31;;;;;;;0.47;0.47;;;;;;;14.24;79.21;98997.44;5074250;28;20477;-59
2022/04/23 08:20:58;;;;;;;0.30;0.20;;;;;;;14.46;78.85;99007.63;5060741;28;20738;-59
2022/04/23 08:23:24;;;;;;;0.30;0.20;;;;;;;14.40;79.68;99002.66;5069418;28;20552;-58
2022/04/23 08:25:55;;;;;;;0.30;0.20;;;;;;;14.42;79.56;98994.53;5070957;28;20485;-58
2022/04/23 08:31:08;;;;;;;0.30;0.20;;;;;;;15.02;77.96;99002.16;5048926;28;20446;-57
2022/04/23 08:36:20;;;;;;;0.40;0.30;;;;;;;14.61;77.05;98994.22;5073431;28;20466;-57
2022/04/23 08:38:46;;;;;;;0.40;0.40;;;;;;;14.62;76.83;98999.47;5073509;28;20474;-56
2022/04/23 08:41:13;;;;;;;0.30;0.20;;;;;;;14.68;76.35;98988.38;5073797;28;20507;-57
2022/04/23 08:43:43;;;;;;;0.33;0.23;;;;;;;15.10;77.74;98989.13;5073608;28;20457;-57
2022/04/23 08:46:09;;;;;;;0.40;0.30;;;;;;;15.06;75.14;98982.25;5073672;28;20497;-56
2022/04/23 08:48:47;;;;;;;0.30;0.20;;;;;;;15.00;75.01;98994.25;5073414;28;20474;-56
2022/04/23 08:51:18;;;;;;;0.30;0.20;;;;;;;15.32;74.21;98983.16;5073577;28;20446;-57
2022/04/23 08:53:46;;;;;;;0.30;0.20;;;;;;;15.67;75.25;98978.91;5067072;28;20447;-57
2022/04/23 08:56:13;;;;;;;1.70;1.60;;;;;;;15.39;74.78;98996.03;5067319;28;20941;-57
2022/04/23 08:58:39;;;;;;;0.30;0.20;;;;;;;15.57;75.01;98988.50;5073085;28;20477;-57
2022/04/23 09:01:06;;;;;;;0.30;0.20;;;;;;;15.68;74.51;98991.34;5071996;28;20493;-57
2022/04/23 09:03:33;;;;;;;0.30;0.20;;;;;;;15.73;73.57;98988.31;5073366;28;20450;-57
2022/04/23 09:06:00;;;;;;;1.13;1.13;;;;;;;15.84;73.60;98988.44;5072896;28;20591;-57
2022/04/23 09:08:29;;;;;;;0.30;0.20;;;;;;;15.53;73.99;98973.63;5073005;28;20517;-57
2022/04/23 09:10:56;;;;;;;0.40;0.30;;;;;;;15.44;74.32;98976.94;5072989;28;20976;-57
2022/04/23 09:13:28;;;;;;;0.50;0.50;;;;;;;15.18;73.89;98985.91;5073192;28;20450;-57
2022/04/23 09:24:45;;;;;;;0.30;0.20;;;;;;;16.04;70.75;98983.47;5053801;28;20449;-57
2022/04/23 09:27:12;;;;;;;0.30;0.20;;;;;;;16.10;71.98;98983.03;5062979;28;20471;-57
2022/04/23 09:29:39;;;;;;;0.37;0.30;;;;;;;15.69;71.62;98986.84;5072640;28;20473;-57
2022/04/23 09:32:16;;;;;;;0.30;0.30;;;;;;;15.70;70.80;98980.50;5072783;28;20446;-57
2022/04/23 09:34:42;;;;;;;0.30;0.20;;;;;;;15.58;71.53;98992.91;5072832;28;20453;-57
2022/04/23 09:37:09;;;;;;;0.30;0.20;;;;;;;15.41;71.05;98983.38;5072611;28;20989;-57
2022/04/23 09:39:38;;;;;;;0.30;0.20;;;;;;;15.23;72.02;98983.81;5073128;28;20508;-57
2022/04/23 09:42:17;;;;;;;0.30;0.20;;;;;;;15.54;72.34;98978.03;5072512;28;20938;-57
2022/04/23 09:44:45;;;;;;;0.60;0.50;;;;;;;16.14;71.46;98971.97;5073102;28;20460;-57
2022/04/23 09:47:31;;;;;;;0.30;0.20;;;;;;;16.31;68.30;98970.75;5071893;28;20470;-57
2022/04/23 09:49:58;;;;;;;0.30;0.20;;;;;;;16.29;69.67;98968.16;5072459;28;20524;-57
2022/04/23 09:52:29;;;;;;;0.30;0.20;;;;;;;16.56;68.29;98976.00;5072557;28;20438;-57
2022/04/23 09:55:18;;;;;;;0.30;0.20;;;;;;;16.81;69.04;98977.75;5058106;28;21002;-57
2022/04/23 09:57:47;;;;;;;1.03;1.03;;;;;;;16.42;67.89;98984.22;5072119;28;20535;-57
2022/04/23 10:00:14;;;;;;;0.30;0.20;;;;;;;16.50;68.50;98962.19;5072167;28;20454;-57
2022/04/23 10:02:44;;;;;;;0.30;0.20;;;;;;;16.64;67.07;98971.91;5071499;28;20442;-57
2022/04/23 10:05:14;;;;;;;0.30;0.20;;;;;;;16.47;66.20;98963.28;5072711;28;21009;-57
2022/04/23 10:07:45;;;;;;;0.90;0.90;;;;;;;16.75;67.08;98964.78;5072221;28;20591;-57
2022/04/23 10:10:13;;;;;;;0.30;0.20;;;;;;;16.53;68.05;98964.66;5072316;28;20454;-57
2022/04/23 10:12:43;;;;;;;0.70;0.63;;;;;;;16.67;67.30;98968.97;5071822;28;20453;-57
2022/04/23 10:15:11;;;;;;;0.47;0.47;;;;;;;16.81;66.54;98967.00;5072206;28;20489;-57
2022/04/23 10:17:40;;;;;;;0.30;0.20;;;;;;;16.65;65.96;98962.88;5070943;28;21000;-57
2022/04/23 10:20:11;;;;;;;0.30;0.20;;;;;;;16.65;66.64;98971.78;5060795;28;21009;-57
2022/04/23 10:23:04;;;;;;;0.60;0.60;;;;;;;16.54;66.71;98971.72;5069702;28;20453;-57
2022/04/23 10:25:42;;;;;;;0.30;0.20;;;;;;;17.06;67.81;98962.47;5061385;28;20542;-57
2022/04/23 10:28:09;;;;;;;0.40;0.30;;;;;;;16.87;67.86;98960.34;5061875;28;20938;-57
2022/04/23 10:30:36;;;;;;;0.30;0.20;;;;;;;16.67;67.18;98958.25;5071981;28;20829;-58
2022/04/23 10:33:28;;;;;;;0.30;0.20;;;;;;;16.72;68.34;98962.34;5072059;28;20449;-58
2022/04/23 10:36:09;;;;;;;0.30;0.20;;;;;;;16.63;66.95;98968.38;5070662;28;20507;-57
2022/04/23 10:38:45;;;;;;;0.30;0.20;;;;;;;16.66;65.71;98951.16;5071732;28;20832;-57
2022/04/23 10:41:14;;;;;;;0.30;0.20;;;;;;;17.08;63.73;98953.31;5072015;28;20499;-57
2022/04/23 10:43:47;;;;;;;0.40;0.40;;;;;;;17.04;64.51;98962.59;5071736;28;20508;-57
2022/04/23 10:46:45;;;;;;;0.40;0.30;;;;;;;16.99;65.59;98954.00;5072060;28;20493;-57
2022/04/23 10:49:15;;;;;;;0.30;0.20;;;;;;;16.73;67.40;98961.38;5040528;28;20789;-57
2022/04/23 10:51:46;;;;;;;0.30;0.20;;;;;;;16.84;65.92;98958.72;5058876;28;21003;-57
2022/04/23 10:54:16;;;;;;;0.30;0.20;;;;;;;16.43;65.82;98964.47;5061421;28;20541;-57
2022/04/23 10:56:47;;;;;;;0.30;0.20;;;;;;;16.68;65.36;98951.94;5069434;28;20454;-57
2022/04/23 10:59:38;;;;;;;0.40;0.30;;;;;;;16.72;64.88;98954.31;5073702;28;20442;-57
2022/04/23 11:02:13;;;;;;;0.30;0.20;;;;;;;16.64;65.81;98945.94;5052605;28;20940;-57
2022/04/23 11:13:54;;;;;;;0.30;0.20;;;;;;;16.38;66.74;98955.06;5060803;28;20947;-57
2022/04/23 11:16:27;;;;;;;0.30;0.20;;;;;;;16.26;67.44;98956.81;5054644;28;20454;-57
2022/04/23 11:18:58;;;;;;;0.30;0.20;;;;;;;16.53;66.47;98953.91;5038710;28;20521;-57
2022/04/23 11:21:31;;;;;;;0.30;0.20;;;;;;;16.29;66.10;98954.75;5062617;28;20540;-57
2022/04/23 11:23:59;;;;;;;0.30;0.20;;;;;;;16.36;66.07;98944.44;5063378;28;20494;-57
2022/04/23 11:26:44;;;;;;;0.40;0.30;;;;;;;16.35;65.98;98953.47;5050895;28;20479;-57
2022/04/23 11:29:13;;;;;;;0.30;0.20;;;;;;;16.10;66.83;98953.53;5061110;28;20500;-57
2022/04/23 11:31:40;;;;;;;0.30;0.20;;;;;;;16.21;67.20;98953.63;5042436;28;20829;-57
2022/04/23 11:34:07;;;;;;;0.50;0.50;;;;;;;16.07;67.06;98949.25;5071606;28;20458;-57
2022/04/23 11:36:36;;;;;;;0.30;0.20;;;;;;;15.94;67.37;98953.78;5049501;28;20451;-57
2022/04/23 11:39:09;;;;;;;0.30;0.20;;;;;;;15.88;67.74;98951.53;5056632;28;20546;-57
2022/04/23 11:41:36;;;;;;;0.30;0.20;;;;;;;16.40;66.90;98955.78;5051635;28;20505;-57
2022/04/23 11:47:06;;;;;;;0.30;0.20;;;;;;;16.13;67.10;98953.31;5049635;28;20517;-52
2022/04/23 11:49:33;;;;;;;2.80;2.60;;;;;;;16.20;66.98;98950.09;5059400;28;20453;-57
2022/04/23 11:52:11;;;;;;;0.30;0.20;;;;;;;16.17;67.40;98946.75;5061960;28;20465;-56
2022/04/23 11:54:40;;;;;;;0.40;0.30;;;;;;;16.43;66.99;98953.72;5048997;28;20522;-57
2022/04/23 11:57:09;;;;;;;0.53;0.53;;;;;;;16.29;66.23;98948.53;5064783;28;20478;-56
2022/04/23 11:59:36;;;;;;;0.30;0.20;;;;;;;16.10;66.35;98951.72;5048494;28;20501;-56
2022/04/23 12:02:25;;;;;;;8.40;1.90;;;;;;;16.48;66.41;98950.72;5060187;28;21045;-57
2022/04/23 12:04:53;;;;;;;0.30;0.20;;;;;;;16.32;66.18;98948.31;5055686;28;20476;-56
2022/04/23 12:07:23;;;;;;;0.30;0.20;;;;;;;16.49;65.98;98942.56;5063269;28;20927;-56
2022/04/23 12:09:54;;;;;;;0.30;0.20;;;;;;;16.37;65.33;98946.16;5048189;28;21030;-56
2022/04/23 12:12:25;;;;;;;0.30;0.20;;;;;;;16.66;64.74;98940.44;5051301;28;20470;-56
2022/04/23 12:14:55;;;;;;;0.30;0.20;;;;;;;16.72;63.92;98943.56;5048082;28;20480;-56
2022/04/23 12:17:27;;;;;;;0.30;0.20;;;;;;;16.70;63.35;98937.44;5074753;28;20505;-56